createdAt,value
2019-01-24T00:02:05.702Z,88.83
2019-01-24T00:04:36.601Z,77.37
2019-01-24T00:07:07.356Z,79.45
2019-01-24T00:09:37.986Z,77.87
2019-01-24T00:12:08.794Z,77.93
2019-01-24T00:14:39.763Z,85.80
2019-01-24T00:17:10.395Z,79.37
2019-01-24T00:19:41.135Z,77.70
2019-01-24T00:22:12.113Z,85.13
2019-01-24T00:24:42.986Z,71.27
2019-01-24T00:27:13.611Z,70.77
2019-01-24T00:29:44.557Z,75.80
2019-01-24T00:32:15.573Z,78.63
2019-01-24T00:34:46.266Z,71.70
2019-01-24T00:37:17.200Z,66.87
2019-01-24T00:39:47.810Z,67.97
2019-01-24T00:42:18.616Z,68.60
2019-01-24T00:44:49.309Z,63.40
2019-01-24T00:47:19.866Z,60.20
2019-01-24T00:49:50.395Z,64.17
2019-01-24T00:52:21.049Z,69.57
2019-01-24T00:54:51.667Z,65.97
2019-01-24T00:57:22.208Z,60.43
2019-01-24T00:59:52.855Z,58.07
2019-01-24T01:02:23.525Z,68.27
2019-01-24T01:04:54.127Z,62.27
2019-01-24T01:07:24.792Z,63.97
2019-01-24T01:09:55.430Z,63.97
2019-01-24T01:12:26.999Z,58.95
2019-01-24T01:14:57.968Z,56.00
2019-01-24T01:17:28.609Z,71.77
2019-01-24T01:19:59.138Z,65.03
2019-01-24T01:22:29.790Z,64.03
2019-01-24T01:25:00.391Z,73.27
2019-01-24T01:27:31.017Z,63.80
2019-01-24T01:30:01.956Z,70.57
2019-01-24T01:32:32.651Z,60.73
2019-01-24T01:35:03.305Z,70.00
2019-01-24T01:37:34.254Z,61.85
2019-01-24T01:40:07.350Z,64.57
2019-01-24T01:42:38.304Z,63.70
2019-01-24T01:45:14.491Z,59.57
2019-01-24T01:47:45.400Z,64.10
2019-01-24T01:50:21.706Z,65.97
2019-01-24T01:52:52.360Z,65.67
2019-01-24T01:55:23.115Z,63.10
2019-01-24T01:57:53.759Z,64.87
2019-01-24T02:00:25.509Z,66.43
2019-01-24T02:02:56.157Z,52.30
2019-01-24T02:05:26.770Z,62.80
2019-01-24T02:07:57.385Z,63.17
2019-01-24T02:10:27.992Z,61.40
2019-01-24T02:12:58.962Z,72.33
2019-01-24T02:15:30.177Z,70.30
2019-01-24T02:18:01.399Z,66.80
2019-01-24T02:20:32.650Z,58.47
2019-01-24T02:23:05.042Z,67.17
2019-01-24T02:25:35.846Z,71.17
2019-01-24T02:28:06.616Z,56.33
2019-01-24T02:30:37.835Z,57.80
2019-01-24T02:33:09.112Z,54.85
2019-01-24T02:35:40.627Z,60.17
2019-01-24T02:38:11.795Z,65.67
2019-01-24T02:40:43.075Z,56.97
2019-01-24T02:43:14.156Z,60.80
2019-01-24T02:45:44.852Z,65.37
2019-01-24T02:48:16.665Z,63.00
2019-01-24T02:50:47.527Z,58.03
2019-01-24T02:53:18.684Z,62.05
2019-01-24T02:55:49.819Z,65.33
2019-01-24T02:58:22.711Z,61.50
2019-01-24T03:00:53.991Z,68.60
2019-01-24T03:03:24.851Z,70.13
2019-01-24T03:05:55.753Z,60.52
2019-01-24T03:08:26.868Z,67.00
2019-01-24T03:10:57.750Z,63.43
2019-01-24T03:13:29.879Z,62.03
2019-01-24T03:16:01.053Z,64.07
2019-01-24T03:18:33.229Z,55.33
2019-01-24T03:21:03.935Z,63.47
2019-01-24T03:23:34.598Z,60.27
2019-01-24T03:26:09.317Z,63.77
2019-01-24T03:28:40.832Z,66.70
2019-01-24T03:31:11.904Z,62.30
2019-01-24T03:33:43.185Z,67.23
2019-01-24T03:36:15.231Z,71.84
2019-01-24T03:38:46.956Z,65.97
2019-01-24T03:41:18.575Z,74.57
2019-01-24T03:43:50.067Z,69.27
2019-01-24T03:46:21.742Z,67.40
2019-01-24T03:48:53.086Z,64.17
2019-01-24T03:51:24.012Z,66.83
2019-01-24T03:53:55.802Z,67.00
2019-01-24T03:56:28.010Z,66.03
2019-01-24T03:58:58.976Z,67.50
2019-01-24T04:01:29.993Z,65.37
2019-01-24T04:04:01.249Z,60.17
2019-01-24T04:06:32.548Z,64.43
2019-01-24T04:09:05.335Z,65.80
2019-01-24T04:11:36.589Z,64.60
2019-01-24T04:14:07.607Z,59.33
2019-01-24T04:16:38.959Z,69.70
2019-01-24T04:19:09.648Z,74.00
2019-01-24T04:21:40.313Z,66.70
2019-01-24T04:24:10.986Z,77.60
2019-01-24T04:26:42.527Z,64.70
2019-01-24T04:29:13.467Z,64.60
2019-01-24T04:31:44.459Z,60.93
2019-01-24T04:34:15.435Z,63.00
2019-01-24T04:36:49.515Z,62.90
2019-01-24T04:39:21.443Z,65.72
2019-01-24T04:41:52.396Z,65.43
2019-01-24T04:44:23.376Z,73.43
2019-01-24T04:46:54.390Z,58.87
2019-01-24T04:49:25.735Z,67.47
2019-01-24T04:51:57.705Z,63.63
2019-01-24T04:54:28.737Z,69.80
2019-01-24T04:56:59.386Z,67.10
2019-01-24T04:59:30.007Z,65.23
2019-01-24T05:02:00.647Z,63.67
2019-01-24T05:04:31.271Z,69.63
2019-01-24T05:07:02.206Z,64.87
2019-01-24T05:09:33.203Z,72.73
2019-01-24T05:12:04.332Z,65.37
2019-01-24T05:14:35.331Z,63.73
2019-01-24T05:17:06.406Z,69.90
2019-01-24T05:19:37.808Z,69.00
2019-01-24T05:22:08.714Z,62.13
2019-01-24T05:24:40.082Z,65.63
2019-01-24T05:27:11.072Z,65.77
2019-01-24T05:29:42.368Z,69.93
2019-01-24T05:32:13.815Z,65.50
2019-01-24T05:34:47.159Z,69.03
2019-01-24T05:37:17.944Z,68.43
2019-01-24T05:39:49.071Z,63.23
2019-01-24T05:42:21.090Z,68.13
2019-01-24T05:44:52.688Z,60.83
2019-01-24T05:47:24.399Z,62.90
2019-01-24T05:49:55.417Z,65.33
2019-01-24T05:52:27.146Z,60.47
2019-01-24T05:54:58.215Z,70.23
2019-01-24T05:57:30.634Z,66.80
2019-01-24T06:00:09.427Z,73.13
2019-01-24T06:02:44.502Z,64.60
2019-01-24T06:05:15.923Z,69.83
2019-01-24T06:07:49.447Z,59.60
2019-01-24T06:10:20.409Z,65.90
2019-01-24T06:12:52.599Z,67.17
2019-01-24T06:15:23.328Z,66.47
2019-01-24T06:17:54.274Z,66.93
2019-01-24T06:20:25.547Z,67.37
2019-01-24T06:22:57.935Z,63.45
2019-01-24T06:25:28.675Z,73.10
2019-01-24T06:27:59.713Z,73.70
2019-01-24T06:30:30.646Z,69.53
2019-01-24T06:33:01.227Z,67.50
2019-01-24T06:35:32.129Z,64.37
2019-01-24T06:38:02.741Z,65.63
2019-01-24T06:40:33.577Z,74.47
2019-01-24T06:43:04.183Z,67.87
2019-01-24T06:45:35.095Z,62.83
2019-01-24T06:48:05.943Z,70.27
2019-01-24T06:50:37.329Z,69.20
2019-01-24T06:53:13.069Z,66.60
2019-01-24T06:55:44.028Z,61.80
2019-01-24T06:58:15.264Z,74.03
2019-01-24T07:00:46.253Z,62.43
2019-01-24T07:03:17.206Z,54.97
2019-01-24T07:05:47.844Z,60.30
2019-01-24T07:08:18.742Z,56.97
2019-01-24T07:10:49.456Z,54.50
2019-01-24T07:13:20.218Z,61.37
2019-01-24T07:15:51.223Z,59.80
2019-01-24T07:18:22.181Z,58.28
2019-01-24T07:20:53.076Z,62.97
2019-01-24T07:23:24.327Z,58.90
2019-01-24T07:25:55.277Z,57.87
2019-01-24T07:28:25.939Z,58.60
2019-01-24T07:30:56.601Z,58.60
2019-01-24T07:33:27.935Z,59.85
2019-01-24T07:36:02.210Z,57.43
2019-01-24T07:38:35.237Z,51.23
2019-01-24T07:41:06.053Z,54.27
2019-01-24T07:43:37.011Z,50.60
2019-01-24T07:46:08.201Z,57.07
2019-01-24T07:48:38.876Z,51.58
2019-01-24T07:51:09.934Z,52.98
2019-01-24T07:53:40.847Z,51.20
2019-01-24T07:56:11.438Z,51.65
2019-01-24T07:58:41.985Z,55.13
2019-01-24T08:01:12.520Z,53.27
2019-01-24T08:03:43.168Z,53.33
2019-01-24T08:06:13.727Z,51.13
2019-01-24T08:08:44.374Z,47.23
2019-01-24T08:11:14.960Z,50.20
2019-01-24T08:13:46.133Z,42.73
2019-01-24T08:16:17.055Z,48.90
2019-01-24T08:18:48.024Z,53.80
2019-01-24T08:21:18.668Z,41.67
2019-01-24T08:23:49.602Z,51.93
2019-01-24T08:26:20.560Z,53.23
2019-01-24T08:28:52.008Z,50.40
2019-01-24T08:31:22.675Z,49.83
2019-01-24T08:33:53.950Z,45.13
2019-01-24T08:36:25.179Z,49.60
2019-01-24T08:38:55.842Z,56.53
2019-01-24T08:41:26.603Z,53.27
2019-01-24T08:43:58.246Z,50.70
2019-01-24T08:46:28.861Z,43.93
2019-01-24T08:48:59.715Z,46.77
2019-01-24T08:51:30.533Z,44.40
2019-01-24T08:54:01.232Z,41.70
2019-01-24T08:56:32.039Z,41.77
2019-01-24T08:59:03.629Z,47.30
2019-01-24T09:01:34.352Z,45.85
2019-01-24T09:04:05.440Z,44.50
2019-01-24T09:06:36.356Z,43.68
2019-01-24T09:09:10.709Z,42.57
2019-01-24T09:11:41.507Z,46.00
2019-01-24T09:14:12.644Z,42.90
2019-01-24T09:16:43.310Z,52.30
2019-01-24T09:19:13.986Z,47.07
2019-01-24T09:21:44.822Z,43.07
2019-01-24T09:24:15.773Z,48.30
2019-01-24T09:26:46.905Z,45.73
2019-01-24T09:29:17.604Z,50.28
2019-01-24T09:31:48.249Z,46.60
2019-01-24T09:34:19.785Z,52.50
2019-01-24T09:36:50.902Z,45.57
2019-01-24T09:39:21.617Z,52.90
2019-01-24T09:41:52.389Z,47.30
2019-01-24T09:44:23.015Z,50.40
2019-01-24T09:46:53.853Z,53.30
2019-01-24T09:49:25.220Z,47.63
2019-01-24T09:51:56.106Z,47.40
2019-01-24T09:54:27.179Z,50.03
2019-01-24T09:56:57.847Z,50.30
2019-01-24T09:59:28.802Z,50.13
2019-01-24T10:01:59.418Z,50.50
2019-01-24T10:04:30.109Z,52.23
2019-01-24T10:07:00.789Z,48.90
2019-01-24T10:09:31.426Z,50.03
2019-01-24T10:12:02.105Z,49.80
2019-01-24T10:14:32.995Z,47.27
2019-01-24T10:17:03.612Z,53.70
2019-01-24T10:19:34.281Z,43.00
2019-01-24T10:22:06.296Z,51.23
2019-01-24T10:24:36.930Z,43.60
2019-01-24T10:27:07.974Z,48.47
2019-01-24T10:29:38.912Z,53.13
2019-01-24T10:32:09.537Z,45.23
2019-01-24T10:34:40.280Z,48.58
2019-01-24T10:37:11.155Z,49.70
2019-01-24T10:39:42.064Z,45.23
2019-01-24T10:42:12.744Z,47.90
2019-01-24T10:44:43.654Z,47.07
2019-01-24T10:47:14.271Z,46.23
2019-01-24T10:52:38.600Z,55.77
2019-01-24T10:55:01.148Z,48.92
2019-01-24T10:57:32.178Z,49.33
2019-01-24T11:00:02.999Z,44.47
2019-01-24T11:02:34.096Z,48.10
2019-01-24T11:05:05.507Z,49.70
2019-01-24T11:07:36.689Z,46.83
2019-01-24T11:10:08.597Z,49.45
2019-01-24T11:12:39.786Z,52.37
2019-01-24T11:15:15.851Z,45.23
2019-01-24T11:17:47.298Z,49.10
2019-01-24T11:20:19.759Z,47.27
2019-01-24T11:22:51.038Z,47.00
2019-01-24T11:25:23.173Z,48.57
2019-01-24T11:27:54.835Z,45.07
2019-01-24T11:30:28.887Z,51.73
2019-01-24T11:33:00.165Z,49.70
2019-01-24T11:35:33.425Z,47.23
2019-01-24T11:38:04.400Z,49.30
2019-01-24T11:40:35.133Z,50.43
2019-01-24T11:43:06.440Z,53.53
2019-01-24T11:45:43.097Z,52.37
2019-01-24T11:48:14.284Z,52.60
2019-01-24T11:50:45.281Z,59.40
2019-01-24T11:53:16.734Z,48.87
2019-01-24T11:55:47.521Z,53.13
2019-01-24T11:58:18.560Z,46.23
2019-01-24T12:00:54.897Z,50.75
2019-01-24T12:03:26.458Z,46.75
2019-01-24T12:05:57.590Z,50.47
2019-01-24T12:08:28.938Z,55.87
2019-01-24T12:11:00.616Z,52.67
2019-01-24T12:13:31.629Z,54.33
2019-01-24T12:16:04.018Z,51.30
2019-01-24T12:18:34.729Z,52.53
2019-01-24T12:21:05.812Z,53.87
2019-01-24T12:23:37.615Z,48.53
2019-01-24T12:26:09.183Z,49.30
2019-01-24T12:28:40.663Z,48.53
2019-01-24T12:31:11.827Z,52.53
2019-01-24T12:33:43.267Z,49.67
2019-01-24T12:36:14.352Z,47.67
2019-01-24T12:38:45.813Z,54.95
2019-01-24T12:41:17.236Z,54.07
2019-01-24T12:43:48.749Z,51.20
2019-01-24T12:46:20.060Z,50.20
2019-01-24T12:48:51.556Z,53.15
2019-01-24T12:51:22.600Z,46.13
2019-01-24T12:53:53.679Z,52.13
2019-01-24T12:56:24.682Z,59.50
2019-01-24T12:58:55.270Z,56.13
2019-01-24T13:01:26.115Z,52.83
2019-01-24T13:03:57.515Z,61.60
2019-01-24T13:06:28.844Z,45.33
2019-01-24T13:09:00.482Z,50.63
2019-01-24T13:11:32.222Z,55.33
2019-01-24T13:14:03.278Z,51.47
2019-01-24T13:16:34.746Z,51.83
2019-01-24T13:19:05.906Z,51.73
2019-01-24T13:21:36.967Z,59.77
2019-01-24T13:24:08.059Z,51.70
2019-01-24T13:26:39.457Z,53.42
2019-01-24T13:29:10.559Z,50.12
2019-01-24T13:31:41.672Z,50.52
2019-01-24T13:34:12.379Z,57.87
2019-01-24T13:36:43.052Z,57.53
2019-01-24T13:39:13.814Z,51.58
2019-01-24T13:41:44.649Z,51.00
2019-01-24T13:44:15.596Z,55.73
2019-01-24T13:46:46.673Z,54.63
2019-01-24T13:49:17.358Z,60.27
2019-01-24T13:51:48.404Z,62.93
2019-01-24T13:54:19.443Z,52.70
2019-01-24T13:56:50.174Z,57.73
2019-01-24T13:59:20.842Z,54.73
2019-01-24T14:01:51.993Z,56.70
2019-01-24T14:04:41.606Z,58.55
2019-01-24T14:07:13.315Z,58.83
2019-01-24T14:09:44.478Z,58.03
2019-01-24T14:12:16.119Z,56.53
2019-01-24T14:14:47.264Z,56.33
2019-01-24T14:17:18.665Z,63.43
2019-01-24T14:19:50.016Z,62.30
2019-01-24T14:22:21.771Z,59.50
2019-01-24T14:24:53.124Z,58.10
2019-01-24T14:27:24.211Z,52.07
2019-01-24T14:29:55.835Z,55.33
2019-01-24T14:32:26.996Z,52.97
2019-01-24T14:34:58.007Z,55.47
2019-01-24T14:37:28.854Z,53.20
2019-01-24T14:39:59.942Z,53.87
2019-01-24T14:42:30.963Z,56.07
2019-01-24T14:45:01.930Z,51.87
2019-01-24T14:47:32.689Z,51.60
2019-01-24T14:50:03.354Z,56.53
2019-01-24T14:52:34.161Z,50.17
2019-01-24T14:55:05.242Z,49.13
2019-01-24T14:57:36.256Z,50.00
2019-01-24T15:00:16.775Z,49.83
2019-01-24T15:02:47.837Z,55.53
2019-01-24T15:05:19.174Z,48.67
2019-01-24T15:07:50.267Z,49.47
2019-01-24T15:10:21.391Z,46.53
2019-01-24T15:12:52.841Z,44.07
2019-01-24T15:15:24.200Z,53.37
2019-01-24T15:17:55.674Z,48.33
2019-01-24T15:20:26.734Z,49.40
2019-01-24T15:23:00.277Z,53.67
2019-01-24T15:25:31.328Z,45.90
2019-01-24T15:28:02.355Z,49.97
2019-01-24T15:30:33.542Z,51.77
2019-01-24T15:33:04.199Z,52.83
2019-01-24T15:35:35.786Z,51.03
2019-01-24T15:38:06.477Z,52.63
2019-01-24T15:40:37.470Z,55.87
2019-01-24T15:43:08.496Z,64.83
2019-01-24T15:45:39.546Z,58.38
2019-01-24T15:48:10.649Z,58.07
2019-01-24T15:50:41.643Z,51.80
2019-01-24T15:53:13.041Z,52.87
2019-01-24T15:55:44.083Z,52.40
2019-01-24T15:58:15.397Z,57.07
2019-01-24T16:00:46.458Z,53.53
2019-01-24T16:03:17.689Z,55.57
2019-01-24T16:05:49.103Z,62.70
2019-01-24T16:08:20.397Z,65.87
2019-01-24T16:10:51.099Z,56.97
2019-01-24T16:13:21.793Z,58.63
2019-01-24T16:15:52.470Z,54.57
2019-01-24T16:18:23.051Z,57.30
2019-01-24T16:20:54.015Z,59.63
2019-01-24T16:23:25.442Z,61.47
2019-01-24T16:25:57.759Z,57.95
2019-01-24T16:28:28.877Z,59.30
2019-01-24T16:31:00.180Z,57.43
2019-01-24T16:33:31.235Z,52.90
2019-01-24T16:36:02.284Z,64.57
2019-01-24T16:38:33.663Z,57.10
2019-01-24T16:41:04.717Z,65.50
2019-01-24T16:43:35.716Z,62.78
2019-01-24T16:46:06.994Z,57.58
2019-01-24T16:48:38.010Z,59.27
2019-01-24T16:51:09.174Z,59.20
2019-01-24T16:53:40.557Z,63.00
2019-01-24T16:56:11.574Z,64.23
2019-01-24T16:58:42.601Z,58.57
2019-01-24T17:01:21.271Z,65.43
2019-01-24T17:03:52.314Z,65.90
2019-01-24T17:06:23.711Z,68.30
2019-01-24T17:08:56.145Z,57.37
2019-01-24T17:11:27.019Z,59.27
2019-01-24T17:13:58.130Z,66.83
2019-01-24T17:16:29.506Z,59.80
2019-01-24T17:19:00.506Z,68.23
2019-01-24T17:21:31.871Z,61.00
2019-01-24T17:24:03.227Z,62.83
2019-01-24T17:26:34.759Z,65.08
2019-01-24T17:29:06.007Z,61.60
2019-01-24T17:31:37.097Z,68.37
2019-01-24T17:34:08.195Z,67.93
2019-01-24T17:36:39.225Z,62.63
2019-01-24T17:39:12.808Z,63.75
2019-01-24T17:41:43.829Z,59.95
2019-01-24T17:44:15.225Z,63.07
2019-01-24T17:46:46.313Z,66.40
2019-01-24T17:49:17.361Z,59.93
2019-01-24T17:51:48.409Z,63.67
2019-01-24T17:54:20.147Z,65.00
2019-01-24T17:56:50.870Z,65.80
2019-01-24T17:59:21.553Z,65.60
2019-01-24T18:01:52.166Z,64.15
2019-01-24T18:04:22.870Z,65.87
2019-01-24T18:06:53.490Z,65.43
2019-01-24T18:09:24.638Z,74.27
2019-01-24T18:11:55.703Z,69.10
2019-01-24T18:14:26.739Z,80.33
2019-01-24T18:16:57.823Z,74.27
2019-01-24T18:19:29.342Z,78.83
2019-01-24T18:22:00.031Z,73.77
2019-01-24T18:24:31.080Z,76.73
2019-01-24T18:27:02.143Z,122.53
2019-01-24T18:29:33.301Z,106.70
2019-01-24T18:32:04.628Z,101.17
2019-01-24T18:34:35.562Z,106.32
2019-01-24T18:37:06.525Z,135.77
2019-01-24T18:39:37.249Z,125.42
2019-01-24T18:42:08.050Z,115.13
2019-01-24T18:44:39.237Z,132.67
2019-01-24T18:47:10.073Z,95.85
2019-01-24T18:49:41.436Z,105.63
2019-01-24T18:52:12.806Z,105.67
2019-01-24T18:54:44.215Z,87.50
2019-01-24T18:57:16.651Z,72.32
2019-01-24T18:59:47.648Z,76.90
2019-01-24T19:02:18.847Z,79.23
2019-01-24T19:04:50.275Z,74.73
2019-01-24T19:07:21.367Z,73.70
2019-01-24T19:09:52.159Z,76.82
2019-01-24T19:12:22.848Z,75.13
2019-01-24T19:14:53.496Z,78.57
2019-01-24T19:17:24.220Z,82.50
2019-01-24T19:19:55.595Z,72.40
2019-01-24T19:22:26.736Z,74.57
2019-01-24T19:24:57.816Z,73.27
2019-01-24T19:27:28.915Z,78.60
2019-01-24T19:29:59.963Z,64.53
2019-01-24T19:32:31.380Z,69.77
2019-01-24T19:35:02.406Z,67.17
2019-01-24T19:37:33.451Z,75.07
2019-01-24T19:40:05.121Z,74.43
2019-01-24T19:42:36.456Z,81.63
2019-01-24T19:45:12.475Z,71.70
2019-01-24T19:47:43.933Z,69.97
2019-01-24T19:50:21.587Z,66.03
2019-01-24T19:52:52.391Z,72.30
2019-01-24T19:55:23.152Z,68.23
2019-01-24T19:57:54.333Z,68.07
2019-01-24T20:00:34.633Z,71.13
2019-01-24T20:03:06.037Z,69.73
2019-01-24T20:05:37.437Z,69.35
2019-01-24T20:08:08.589Z,67.27
2019-01-24T20:10:39.756Z,62.03
2019-01-24T20:13:10.825Z,61.33
2019-01-24T20:15:42.296Z,64.17
2019-01-24T20:18:13.425Z,68.07
2019-01-24T20:20:44.545Z,74.37
2019-01-24T20:23:17.520Z,67.30
2019-01-24T20:25:48.607Z,62.83
2019-01-24T20:28:19.345Z,65.27
2019-01-24T20:30:50.204Z,72.90
2019-01-24T20:33:21.041Z,70.57
2019-01-24T20:35:58.458Z,70.23
2019-01-24T20:38:29.593Z,61.27
2019-01-24T20:41:00.708Z,69.82
2019-01-24T20:43:35.416Z,70.67
2019-01-24T20:46:03.920Z,64.47
2019-01-24T20:48:34.787Z,59.58
2019-01-24T20:51:05.561Z,61.05
2019-01-24T20:53:36.297Z,61.13
2019-01-24T20:56:07.399Z,72.27
2019-01-24T20:58:39.213Z,62.53
2019-01-24T21:01:10.794Z,66.63
2019-01-24T21:03:42.231Z,67.78
2019-01-24T21:06:13.350Z,66.53
2019-01-24T21:08:45.368Z,62.50
2019-01-24T21:11:16.894Z,68.20
2019-01-24T21:13:47.963Z,66.07
2019-01-24T21:16:19.415Z,68.10
2019-01-24T21:18:50.867Z,67.33
2019-01-24T21:21:21.977Z,71.10
2019-01-24T21:23:53.915Z,59.23
2019-01-24T21:26:25.053Z,67.17
2019-01-24T21:28:56.085Z,64.87
2019-01-24T21:31:27.030Z,65.63
2019-01-24T21:33:58.772Z,62.47
2019-01-24T21:36:29.880Z,72.33
2019-01-24T21:39:04.367Z,69.57
2019-01-24T21:41:35.745Z,70.83
2019-01-24T21:44:08.308Z,65.70
2019-01-24T21:46:39.435Z,62.53
2019-01-24T21:49:10.325Z,72.00
2019-01-24T21:51:41.677Z,69.90
2019-01-24T21:54:14.820Z,63.70
2019-01-24T21:56:49.435Z,66.42
2019-01-24T21:59:20.682Z,69.97
2019-01-24T22:01:52.244Z,65.13
2019-01-24T22:04:22.955Z,64.77
2019-01-24T22:06:53.710Z,70.08
2019-01-24T22:09:29.155Z,69.80
2019-01-24T22:11:57.315Z,66.62
2019-01-24T22:14:28.430Z,61.33
2019-01-24T22:16:59.913Z,60.40
2019-01-24T22:19:31.637Z,67.20
2019-01-24T22:22:03.094Z,67.90
2019-01-24T22:24:34.576Z,61.90
2019-01-24T22:27:05.659Z,61.90
2019-01-24T22:29:37.084Z,69.77
2019-01-24T22:32:08.310Z,73.90
2019-01-24T22:34:40.155Z,71.80
2019-01-24T22:37:11.285Z,70.67
2019-01-24T22:39:43.079Z,67.65
2019-01-24T22:42:14.189Z,69.20
2019-01-24T22:44:45.183Z,64.80
2019-01-24T22:47:15.960Z,64.63
2019-01-24T22:49:46.777Z,70.17
2019-01-24T22:52:17.452Z,65.67
2019-01-24T22:54:48.698Z,70.73
2019-01-24T22:57:19.795Z,73.43
2019-01-24T22:59:50.839Z,69.27
2019-01-24T23:02:27.416Z,72.27
2019-01-24T23:04:58.525Z,73.33
2019-01-24T23:07:29.599Z,72.90
2019-01-24T23:10:01.767Z,70.05
2019-01-24T23:12:33.276Z,62.77
2019-01-24T23:15:04.715Z,72.53
2019-01-24T23:17:36.099Z,76.30
2019-01-24T23:20:08.771Z,76.25
2019-01-24T23:22:39.823Z,67.43
2019-01-24T23:25:10.645Z,71.13
2019-01-24T23:27:41.390Z,67.97
2019-01-24T23:30:12.517Z,72.50
2019-01-24T23:32:43.624Z,75.92
2019-01-24T23:35:15.060Z,74.17
2019-01-24T23:37:52.348Z,74.10
2019-01-24T23:40:19.604Z,73.70
2019-01-24T23:42:50.641Z,68.53
2019-01-24T23:45:21.745Z,66.90
2019-01-24T23:47:52.829Z,74.33
2019-01-24T23:50:24.169Z,69.57
2019-01-24T23:52:55.369Z,75.53
2019-01-24T23:55:26.833Z,75.87
2019-01-24T23:57:58.165Z,74.37
